createdAt,value
2022-08-07T00:01:43.852Z,0.98
2022-08-07T00:04:04.416Z,1.17
2022-08-07T00:06:34.000Z,0.90
2022-08-07T00:09:16.254Z,1.10
2022-08-07T00:11:53.965Z,1.50
2022-08-07T00:14:30.296Z,1.30
2022-08-07T00:16:58.840Z,1.15
2022-08-07T00:19:34.274Z,1.17
2022-08-07T00:22:13.904Z,1.40
2022-08-07T00:24:52.963Z,1.00
2022-08-07T00:27:22.626Z,1.23
2022-08-07T00:29:50.455Z,1.50
2022-08-07T00:32:18.677Z,1.38
2022-08-07T00:34:56.226Z,1.27
2022-08-07T00:37:23.875Z,1.50
2022-08-07T00:39:57.313Z,1.60
2022-08-07T00:42:29.240Z,1.20
2022-08-07T00:44:57.101Z,1.17
2022-08-07T00:48:07.648Z,1.05
2022-08-07T00:50:19.006Z,1.30
2022-08-07T00:53:02.072Z,1.80
2022-08-07T00:56:02.231Z,1.05
2022-08-07T00:58:20.359Z,1.10
2022-08-07T01:00:53.443Z,1.58
2022-08-07T01:06:10.123Z,0.98
2022-08-07T01:08:43.107Z,1.10
2022-08-07T01:12:09.270Z,0.93
2022-08-07T01:14:08.994Z,1.17
2022-08-07T01:16:36.690Z,1.20
2022-08-07T01:19:04.537Z,1.40
2022-08-07T01:21:44.365Z,1.52
2022-08-07T01:24:14.597Z,1.50
2022-08-07T01:26:51.943Z,1.20
2022-08-07T01:29:20.453Z,1.00
2022-08-07T01:31:50.106Z,1.20
2022-08-07T01:34:17.820Z,1.33
2022-08-07T01:36:51.407Z,0.65
2022-08-07T01:39:25.394Z,1.30
2022-08-07T01:42:38.812Z,1.45
2022-08-07T01:44:55.486Z,1.10
2022-08-07T01:48:29.482Z,1.25
2022-08-07T01:50:10.821Z,1.40
2022-08-07T01:52:49.370Z,1.23
2022-08-07T01:55:24.074Z,0.98
2022-08-07T01:58:06.920Z,1.30
2022-08-07T02:00:48.894Z,1.23
2022-08-07T02:03:21.407Z,1.30
2022-08-07T02:05:59.822Z,1.17
2022-08-07T02:08:30.063Z,1.50
2022-08-07T02:10:58.044Z,1.48
2022-08-07T02:13:56.617Z,1.00
2022-08-07T02:16:16.070Z,1.10
2022-08-07T02:18:45.351Z,1.10
2022-08-07T02:21:16.166Z,1.30
2022-08-07T02:23:45.960Z,1.20
2022-08-07T02:26:33.071Z,1.15
2022-08-07T02:29:01.198Z,1.17
2022-08-07T02:31:29.463Z,1.10
2022-08-07T02:34:03.636Z,1.08
2022-08-07T02:36:32.984Z,1.15
2022-08-07T02:39:16.387Z,1.23
2022-08-07T02:41:54.499Z,1.17
2022-08-07T02:44:23.586Z,1.13
2022-08-07T02:46:54.688Z,1.30
2022-08-07T02:49:28.617Z,1.60
2022-08-07T02:52:12.993Z,0.90
2022-08-07T02:54:42.857Z,1.13
2022-08-07T02:57:13.571Z,1.10
2022-08-07T02:59:42.639Z,0.98
2022-08-07T03:02:10.873Z,1.20
2022-08-07T03:04:39.355Z,1.17
2022-08-07T03:07:10.651Z,0.95
2022-08-07T03:09:43.345Z,0.80
2022-08-07T03:12:22.182Z,1.02
2022-08-07T03:14:58.671Z,1.05
2022-08-07T03:17:30.575Z,0.95
2022-08-07T03:20:04.978Z,1.23
2022-08-07T03:22:34.264Z,1.10
2022-08-07T03:25:01.993Z,1.27
2022-08-07T03:27:42.206Z,1.08
2022-08-07T03:30:18.736Z,1.45
2022-08-07T03:32:49.141Z,1.05
2022-08-07T03:35:27.156Z,1.05
2022-08-07T03:38:13.331Z,1.00
2022-08-07T03:40:44.212Z,1.17
2022-08-07T03:43:14.759Z,0.98
2022-08-07T03:45:43.628Z,1.00
2022-08-07T03:48:15.455Z,1.10
2022-08-07T03:50:55.676Z,0.93
2022-08-07T03:53:50.056Z,1.60
2022-08-07T03:56:16.710Z,0.90
2022-08-07T03:59:08.365Z,0.90
2022-08-07T04:01:33.421Z,1.27
2022-08-07T04:04:05.630Z,1.13
2022-08-07T04:06:37.442Z,0.93
2022-08-07T04:09:06.553Z,1.08
2022-08-07T04:12:24.667Z,1.30
2022-08-07T04:14:38.114Z,1.23
2022-08-07T04:17:20.477Z,1.10
2022-08-07T04:19:54.377Z,0.90
2022-08-07T04:22:23.314Z,1.10
2022-08-07T04:24:55.310Z,1.00
2022-08-07T04:27:36.194Z,1.20
2022-08-07T04:30:21.251Z,1.15
2022-08-07T04:33:01.882Z,1.13
2022-08-07T04:35:35.769Z,1.02
2022-08-07T04:38:07.649Z,0.95
2022-08-07T04:40:36.247Z,1.27
2022-08-07T04:43:21.111Z,0.82
2022-08-07T04:46:03.769Z,1.30
2022-08-07T04:48:37.507Z,1.20
2022-08-07T04:51:09.057Z,1.20
2022-08-07T04:54:05.596Z,1.10
2022-08-07T04:58:10.080Z,1.30
2022-08-07T05:00:11.603Z,1.15
2022-08-07T05:02:20.705Z,1.38
2022-08-07T05:04:54.204Z,1.10
2022-08-07T05:07:36.629Z,1.05
2022-08-07T05:10:08.029Z,0.73
2022-08-07T05:12:46.165Z,1.10
2022-08-07T05:15:24.007Z,1.02
2022-08-07T05:17:57.713Z,0.90
2022-08-07T05:20:26.471Z,1.05
2022-08-07T05:22:57.736Z,1.00
2022-08-07T05:26:10.350Z,1.20
2022-08-07T05:28:20.874Z,1.02
2022-08-07T05:30:52.275Z,1.05
2022-08-07T05:33:21.692Z,1.25
2022-08-07T05:35:49.888Z,1.00
2022-08-07T05:39:01.498Z,1.20
2022-08-07T05:41:12.420Z,1.50
2022-08-07T05:43:49.841Z,0.95
2022-08-07T05:46:29.634Z,0.93
2022-08-07T05:48:59.671Z,1.33
2022-08-07T05:51:31.683Z,1.00
2022-08-07T05:54:13.869Z,1.08
2022-08-07T05:56:51.401Z,0.98
2022-08-07T05:59:19.652Z,1.00
2022-08-07T06:01:48.506Z,1.00
2022-08-07T06:04:18.421Z,1.10
2022-08-07T06:06:47.748Z,1.13
2022-08-07T06:09:44.789Z,1.30
2022-08-07T06:12:12.397Z,1.20
2022-08-07T06:14:43.027Z,1.30
2022-08-07T06:17:17.834Z,0.90
2022-08-07T06:19:52.391Z,0.90
2022-08-07T06:22:36.916Z,0.98
2022-08-07T06:25:10.022Z,1.40
2022-08-07T06:27:44.454Z,1.55
2022-08-07T06:30:35.964Z,1.23
2022-08-07T06:33:09.738Z,1.55
2022-08-07T06:36:06.733Z,1.27
2022-08-07T06:38:35.142Z,0.90
2022-08-07T06:41:03.006Z,1.00
2022-08-07T06:43:39.450Z,1.50
2022-08-07T06:46:11.601Z,1.13
2022-08-07T06:48:41.780Z,1.45
2022-08-07T06:51:13.504Z,0.95
2022-08-07T06:55:27.461Z,1.13
2022-08-07T06:56:30.984Z,1.10
2022-08-07T07:00:14.594Z,1.10
2022-08-07T07:01:48.818Z,1.10
2022-08-07T07:04:32.737Z,1.13
2022-08-07T07:07:19.491Z,1.42
2022-08-07T07:09:51.448Z,1.60
2022-08-07T07:12:30.706Z,1.27
2022-08-07T07:15:03.397Z,1.08
2022-08-07T07:17:38.810Z,1.13
2022-08-07T07:20:09.695Z,1.27
2022-08-07T07:24:05.215Z,1.20
2022-08-07T07:26:35.673Z,1.10
2022-08-07T07:28:42.184Z,1.27
2022-08-07T07:31:08.332Z,1.02
2022-08-07T07:33:36.644Z,1.33
2022-08-07T07:36:12.745Z,1.33
2022-08-07T07:38:47.511Z,1.10
2022-08-07T07:41:15.494Z,1.10
2022-08-07T07:44:14.901Z,1.25
2022-08-07T07:46:40.606Z,1.00
2022-08-07T07:50:34.645Z,1.00
2022-08-07T07:52:09.341Z,0.98
2022-08-07T07:54:38.399Z,1.10
2022-08-07T07:57:11.738Z,1.20
2022-08-07T07:59:52.720Z,1.00
2022-08-07T08:02:34.189Z,1.10
2022-08-07T08:05:04.200Z,0.95
2022-08-07T08:07:35.723Z,1.10
2022-08-07T08:10:14.946Z,1.25
2022-08-07T08:13:00.580Z,0.88
2022-08-07T08:15:58.173Z,1.00
2022-08-07T08:18:20.662Z,1.05
2022-08-07T08:20:52.178Z,0.88
2022-08-07T08:23:21.629Z,1.40
2022-08-07T08:26:04.636Z,1.20
2022-08-07T08:28:38.454Z,1.00
2022-08-07T08:31:08.058Z,1.20
2022-08-07T08:33:49.004Z,1.05
2022-08-07T08:36:16.734Z,1.35
2022-08-07T08:38:44.528Z,1.30
2022-08-07T08:41:19.341Z,1.27
2022-08-07T08:43:59.142Z,1.10
2022-08-07T08:46:33.890Z,1.10
2022-08-07T08:49:05.189Z,1.20
2022-08-07T08:52:01.124Z,1.10
2022-08-07T08:54:26.826Z,0.88
2022-08-07T08:56:56.401Z,1.23
2022-08-07T08:59:29.359Z,0.90
2022-08-07T09:02:02.356Z,1.17
2022-08-07T09:04:42.055Z,1.17
2022-08-07T09:07:14.762Z,0.98
2022-08-07T09:09:56.706Z,1.30
2022-08-07T09:12:40.532Z,1.38
2022-08-07T09:16:25.456Z,0.90
2022-08-07T09:18:23.635Z,0.90
2022-08-07T09:21:00.660Z,1.13
2022-08-07T09:24:32.925Z,1.02
2022-08-07T09:26:25.575Z,1.05
2022-08-07T09:30:02.169Z,1.25
2022-08-07T09:32:02.769Z,1.45
2022-08-07T09:34:34.228Z,1.17
2022-08-07T09:37:05.100Z,0.95
2022-08-07T09:39:54.355Z,1.10
2022-08-07T09:42:38.171Z,1.50
2022-08-07T09:47:26.313Z,1.20
2022-08-07T09:48:11.755Z,0.80
2022-08-07T09:51:05.434Z,1.33
2022-08-07T09:53:59.327Z,0.98
2022-08-07T09:57:03.336Z,1.30
2022-08-07T10:00:00.968Z,1.10
2022-08-07T10:02:56.312Z,0.88
2022-08-07T10:05:59.154Z,0.77
2022-08-07T10:12:03.336Z,1.00
2022-08-07T10:14:30.429Z,1.27
2022-08-07T10:17:14.079Z,1.00
2022-08-07T10:19:55.705Z,0.90
2022-08-07T10:22:33.871Z,0.93
2022-08-07T10:25:22.653Z,0.95
2022-08-07T10:28:12.690Z,0.88
2022-08-07T10:30:50.092Z,0.73
2022-08-07T10:34:14.148Z,0.95
2022-08-07T10:36:48.603Z,0.63
2022-08-07T10:39:25.706Z,1.00
2022-08-07T10:42:20.965Z,0.90
2022-08-07T10:44:54.796Z,0.90
2022-08-07T10:47:51.585Z,1.08
2022-08-07T10:50:25.717Z,1.10
2022-08-07T10:53:08.110Z,0.70
2022-08-07T10:55:45.866Z,0.70
2022-08-07T10:58:40.558Z,0.93
2022-08-07T11:01:35.746Z,1.00
2022-08-07T11:04:34.596Z,0.80
2022-08-07T11:07:15.058Z,0.60
2022-08-07T11:10:07.747Z,0.77
2022-08-07T11:12:43.558Z,0.90
2022-08-07T11:15:17.404Z,1.00
2022-08-07T11:17:50.263Z,1.10
2022-08-07T11:20:24.572Z,1.23
2022-08-07T11:22:57.096Z,1.33
2022-08-07T11:25:28.606Z,1.00
2022-08-07T11:28:04.465Z,1.10
2022-08-07T11:30:39.204Z,1.40
2022-08-07T11:33:17.326Z,1.20
2022-08-07T11:35:59.872Z,1.05
2022-08-07T11:38:32.409Z,1.23
2022-08-07T11:41:03.562Z,1.13
2022-08-07T11:43:54.690Z,1.08
2022-08-07T11:46:39.217Z,1.02
2022-08-07T11:49:51.171Z,0.90
2022-08-07T11:52:37.789Z,0.98
2022-08-07T11:55:18.842Z,0.90
2022-08-07T11:58:16.184Z,1.00
2022-08-07T12:01:02.374Z,1.25
2022-08-07T12:03:48.740Z,1.52
2022-08-07T12:06:38.901Z,1.13
2022-08-07T12:09:16.145Z,1.52
2022-08-07T12:12:10.248Z,1.38
2022-08-07T12:14:44.699Z,1.42
2022-08-07T12:17:28.434Z,1.88
2022-08-07T12:20:12.938Z,1.25
2022-08-07T12:22:58.857Z,1.00
2022-08-07T12:26:21.961Z,1.20
2022-08-07T12:28:30.791Z,1.30
2022-08-07T12:31:09.303Z,1.20
2022-08-07T12:34:01.068Z,1.17
2022-08-07T12:36:32.939Z,0.90
2022-08-07T12:39:03.006Z,1.17
2022-08-07T12:41:49.129Z,1.00
2022-08-07T12:44:20.064Z,1.10
2022-08-07T12:46:58.311Z,1.08
2022-08-07T12:49:44.802Z,0.90
2022-08-07T12:52:27.893Z,1.40
2022-08-07T12:55:03.907Z,1.02
2022-08-07T12:57:59.351Z,0.95
2022-08-07T13:00:41.561Z,1.15
2022-08-07T13:04:00.559Z,1.02
2022-08-07T13:07:00.776Z,0.98
2022-08-07T13:10:37.552Z,1.08
2022-08-07T13:12:51.793Z,0.90
2022-08-07T13:15:29.801Z,1.20
2022-08-07T13:18:26.380Z,1.00
2022-08-07T13:21:02.738Z,0.98
2022-08-07T13:24:02.145Z,1.00
2022-08-07T13:26:29.300Z,1.20
2022-08-07T13:29:04.273Z,1.30
2022-08-07T13:31:46.147Z,0.80
2022-08-07T13:34:36.123Z,0.90
2022-08-07T13:37:10.823Z,1.33
2022-08-07T13:40:33.275Z,0.95
2022-08-07T13:42:39.210Z,1.10
2022-08-07T13:46:06.217Z,0.80
2022-08-07T13:48:06.412Z,1.00
2022-08-07T13:50:45.156Z,0.70
2022-08-07T13:53:35.943Z,1.08
2022-08-07T13:56:18.026Z,0.88
2022-08-07T13:58:56.484Z,1.10
2022-08-07T14:01:26.785Z,0.88
2022-08-07T14:04:07.699Z,0.77
2022-08-07T14:06:41.427Z,1.00
2022-08-07T14:09:16.987Z,1.10
2022-08-07T14:12:01.101Z,0.90
2022-08-07T14:14:42.305Z,0.82
2022-08-07T14:17:31.995Z,0.73
2022-08-07T14:20:43.086Z,0.93
2022-08-07T14:23:01.126Z,1.08
2022-08-07T14:25:39.331Z,0.60
2022-08-07T14:28:20.960Z,0.68
2022-08-07T14:30:57.048Z,1.10
2022-08-07T14:33:24.838Z,0.60
2022-08-07T14:36:12.518Z,0.75
2022-08-07T14:38:50.496Z,0.70
2022-08-07T14:41:34.171Z,0.63
2022-08-07T14:44:15.698Z,0.85
2022-08-07T14:49:58.102Z,0.73
2022-08-07T14:52:27.332Z,0.80
2022-08-07T14:54:58.604Z,0.60
2022-08-07T14:57:54.657Z,0.60
2022-08-07T15:00:20.660Z,1.08
2022-08-07T15:02:58.159Z,0.77
2022-08-07T15:05:26.214Z,0.70
2022-08-07T15:07:54.255Z,0.70
2022-08-07T15:10:25.039Z,1.05
2022-08-07T15:15:53.283Z,0.70
2022-08-07T15:18:33.855Z,0.80
2022-08-07T15:25:13.618Z,0.73
2022-08-07T15:26:46.102Z,0.63
2022-08-07T15:32:04.888Z,0.60
2022-08-07T15:34:37.512Z,0.60
2022-08-07T15:37:27.377Z,0.82
2022-08-07T15:39:58.329Z,0.82
2022-08-07T15:42:48.178Z,0.52
2022-08-07T15:45:56.562Z,0.70
2022-08-07T15:51:11.921Z,0.70
2022-08-07T15:53:51.938Z,0.77
2022-08-07T15:56:24.907Z,0.45
2022-08-07T15:58:55.893Z,0.57
2022-08-07T16:01:39.390Z,0.50
2022-08-07T16:04:14.566Z,0.70
2022-08-07T16:06:49.272Z,0.35
2022-08-07T16:09:22.604Z,0.55
2022-08-07T16:12:03.608Z,0.50
2022-08-07T16:14:43.957Z,0.57
2022-08-07T16:18:01.719Z,0.63
2022-08-07T16:20:43.596Z,0.55
2022-08-07T16:23:55.187Z,0.50
2022-08-07T16:26:32.982Z,0.52
2022-08-07T16:30:08.899Z,0.43
2022-08-07T16:32:00.557Z,0.60
2022-08-07T16:34:38.247Z,0.80
2022-08-07T16:38:05.600Z,0.50
2022-08-07T16:40:31.024Z,0.60
2022-08-07T16:43:06.159Z,0.50
2022-08-07T16:46:34.751Z,0.50
2022-08-07T16:50:27.195Z,0.60
2022-08-07T16:52:49.270Z,0.43
2022-08-07T16:55:13.274Z,0.55
2022-08-07T16:58:02.868Z,0.50
2022-08-07T17:00:42.050Z,0.60
2022-08-07T17:03:18.208Z,0.50
2022-08-07T17:06:01.927Z,0.73
2022-08-07T17:09:10.385Z,0.73
2022-08-07T17:12:04.456Z,0.32
2022-08-07T17:14:39.715Z,0.60
2022-08-07T17:17:18.903Z,0.55
2022-08-07T17:20:01.571Z,0.55
2022-08-07T17:22:38.081Z,0.52
2022-08-07T17:25:15.262Z,0.60
2022-08-07T17:27:57.937Z,0.40
2022-08-07T17:30:27.691Z,0.60
2022-08-07T17:34:10.122Z,0.55
2022-08-07T17:38:36.612Z,0.40
2022-08-07T17:42:02.859Z,0.50
2022-08-07T17:44:01.538Z,0.40
2022-08-07T17:46:34.780Z,0.50
2022-08-07T17:49:08.952Z,0.50
2022-08-07T17:51:59.661Z,0.65
2022-08-07T17:54:53.091Z,0.55
2022-08-07T17:57:24.859Z,0.60
2022-08-07T18:00:27.514Z,0.75
2022-08-07T18:03:20.090Z,0.55
2022-08-07T18:06:03.137Z,0.60
2022-08-07T18:09:00.735Z,0.50
2022-08-07T18:12:16.059Z,0.43
2022-08-07T18:14:28.844Z,0.52
2022-08-07T18:16:59.726Z,0.50
2022-08-07T18:21:08.514Z,0.68
2022-08-07T18:22:27.750Z,0.60
2022-08-07T18:24:57.816Z,0.40
2022-08-07T18:27:40.138Z,0.70
2022-08-07T18:30:30.771Z,0.68
2022-08-07T18:33:38.419Z,0.60
2022-08-07T18:36:33.160Z,0.70
2022-08-07T18:40:08.225Z,0.65
2022-08-07T18:42:15.071Z,0.52
2022-08-07T18:47:44.998Z,0.52
2022-08-07T18:50:46.382Z,0.50
2022-08-07T18:53:21.887Z,0.60
2022-08-07T18:55:58.034Z,0.50
2022-08-07T18:58:43.354Z,0.55
2022-08-07T19:02:32.502Z,0.60
2022-08-07T19:04:32.164Z,0.50
2022-08-07T19:07:08.516Z,0.70
2022-08-07T19:09:56.790Z,0.60
2022-08-07T19:12:32.308Z,0.70
2022-08-07T19:16:02.937Z,0.70
2022-08-07T19:18:07.074Z,0.55
2022-08-07T19:21:08.282Z,0.50
2022-08-07T19:23:58.517Z,0.50
2022-08-07T19:26:43.449Z,0.57
2022-08-07T19:31:00.138Z,0.65
2022-08-07T19:32:17.415Z,0.50
2022-08-07T19:35:00.047Z,0.40
2022-08-07T19:37:56.823Z,0.75
2022-08-07T19:40:16.933Z,0.40
2022-08-07T19:42:59.966Z,0.60
2022-08-07T19:46:05.340Z,0.60
2022-08-07T19:48:18.856Z,0.50
2022-08-07T19:50:54.329Z,0.50
2022-08-07T19:54:31.745Z,0.43
2022-08-07T19:56:55.246Z,0.60
2022-08-07T19:58:58.247Z,0.52
2022-08-07T20:01:52.388Z,0.60
2022-08-07T20:04:31.345Z,0.47
2022-08-07T20:07:04.559Z,0.45
2022-08-07T20:10:35.994Z,0.70
2022-08-07T20:12:34.908Z,0.40
2022-08-07T20:15:04.408Z,0.80
2022-08-07T20:17:38.740Z,0.73
2022-08-07T20:20:07.577Z,0.45
2022-08-07T20:22:37.280Z,0.70
2022-08-07T20:25:12.910Z,0.60
2022-08-07T20:27:58.166Z,0.60
2022-08-07T20:30:31.183Z,0.60
2022-08-07T20:32:59.709Z,0.52
2022-08-07T20:35:32.999Z,0.40
2022-08-07T20:38:02.161Z,0.80
2022-08-07T20:40:33.149Z,0.75
2022-08-07T20:43:02.714Z,0.52
2022-08-07T20:46:24.932Z,0.65
2022-08-07T20:48:28.351Z,0.70
2022-08-07T20:51:00.303Z,0.60
2022-08-07T20:54:02.390Z,0.85
2022-08-07T20:56:26.341Z,0.68
2022-08-07T20:58:55.973Z,0.65
2022-08-07T21:01:26.735Z,0.60
2022-08-07T21:04:21.993Z,0.60
2022-08-07T21:06:53.603Z,0.70
2022-08-07T21:09:30.480Z,0.95
2022-08-07T21:12:29.231Z,0.63
2022-08-07T21:15:01.271Z,0.80
2022-08-07T21:18:20.812Z,1.13
2022-08-07T21:20:29.485Z,1.23
2022-08-07T21:23:08.340Z,0.88
2022-08-07T21:25:56.346Z,1.30
2022-08-07T21:28:48.516Z,0.90
2022-08-07T21:31:49.741Z,1.10
2022-08-07T21:34:16.351Z,1.77
2022-08-07T21:36:51.119Z,1.38
2022-08-07T21:39:45.525Z,1.30
2022-08-07T21:42:46.423Z,1.40
2022-08-07T21:46:05.094Z,1.30
2022-08-07T21:48:29.057Z,1.40
2022-08-07T21:51:08.438Z,1.40
2022-08-07T21:53:52.933Z,1.30
2022-08-07T21:56:37.820Z,1.38
2022-08-07T21:59:26.562Z,1.63
2022-08-07T22:02:10.123Z,1.27
2022-08-07T22:04:41.661Z,1.40
2022-08-07T22:07:31.512Z,1.67
2022-08-07T22:10:12.237Z,1.67
2022-08-07T22:12:45.135Z,1.40
2022-08-07T22:16:42.361Z,1.58
2022-08-07T22:18:06.913Z,1.70
2022-08-07T22:20:42.077Z,1.75
2022-08-07T22:23:21.662Z,1.60
2022-08-07T22:26:05.965Z,1.92
2022-08-07T22:28:41.814Z,1.75
2022-08-07T22:31:56.477Z,2.28
2022-08-07T22:34:15.966Z,1.48
2022-08-07T22:36:52.696Z,1.80
2022-08-07T22:39:51.725Z,1.50
2022-08-07T22:42:53.915Z,1.73
2022-08-07T22:45:21.870Z,1.92
2022-08-07T22:48:13.762Z,1.65
2022-08-07T22:51:21.000Z,1.40
2022-08-07T22:54:07.767Z,1.17
2022-08-07T22:56:46.305Z,1.50
2022-08-07T22:59:34.013Z,1.30
2022-08-07T23:02:08.008Z,1.13
2022-08-07T23:04:57.697Z,1.58
2022-08-07T23:07:41.236Z,1.23
2022-08-07T23:10:38.128Z,1.45
2022-08-07T23:13:29.002Z,1.27
2022-08-07T23:16:06.795Z,1.23
2022-08-07T23:18:43.077Z,1.50
2022-08-07T23:21:29.872Z,1.25
2022-08-07T23:24:11.958Z,1.08
2022-08-07T23:26:59.500Z,1.13
2022-08-07T23:30:38.574Z,1.40
2022-08-07T23:34:34.604Z,1.42
2022-08-07T23:35:43.686Z,1.15
2022-08-07T23:38:36.753Z,1.35
2022-08-07T23:41:17.140Z,1.08
2022-08-07T23:43:53.261Z,1.13
2022-08-07T23:46:34.754Z,1.33
2022-08-07T23:49:19.537Z,1.10
2022-08-07T23:53:00.816Z,1.35
2022-08-07T23:54:46.675Z,1.02
2022-08-07T23:57:22.662Z,1.58
